createdAt,value
2023-05-09T00:01:31.650Z,95159.41
2023-05-09T00:03:59.216Z,95155.44
2023-05-09T00:06:27.766Z,95153.31
2023-05-09T00:08:55.827Z,95156.75
2023-05-09T00:11:22.723Z,95154.41
2023-05-09T00:13:50.762Z,95151.47
2023-05-09T00:16:17.726Z,95150.13
2023-05-09T00:18:44.571Z,95151.22
2023-05-09T00:21:11.182Z,95142.16
2023-05-09T00:23:38.200Z,95143.78
2023-05-09T00:26:06.620Z,95144.56
2023-05-09T00:28:33.145Z,95137.66
2023-05-09T00:30:59.894Z,95137.41
2023-05-09T00:33:26.991Z,95138.47
2023-05-09T00:35:53.883Z,95134.75
2023-05-09T00:38:20.552Z,95137.16
2023-05-09T00:40:47.206Z,95135.28
2023-05-09T00:43:16.896Z,95128.91
2023-05-09T00:45:44.040Z,95127.03
2023-05-09T00:48:10.786Z,95127.06
2023-05-09T00:50:37.712Z,95120.69
2023-05-09T00:53:04.334Z,95122.56
2023-05-09T00:55:31.593Z,95109.78
2023-05-09T00:57:58.392Z,95115.38
2023-05-09T01:00:26.356Z,95107.66
2023-05-09T01:02:54.125Z,95112.72
2023-05-09T01:05:22.191Z,95111.16
2023-05-09T01:07:51.050Z,95097.09
2023-05-09T01:10:22.118Z,95102.66
2023-05-09T01:12:53.802Z,95094.97
2023-05-09T01:15:24.356Z,95093.13
2023-05-09T01:17:55.617Z,95087.03
2023-05-09T01:20:27.620Z,95097.09
2023-05-09T01:22:56.506Z,95093.91
2023-05-09T01:25:44.456Z,95091.78
2023-05-09T01:28:14.367Z,95091.25
2023-05-09T01:30:45.281Z,95087.81
2023-05-09T01:33:13.480Z,95084.63
2023-05-09T01:35:42.009Z,95085.97
2023-05-09T01:38:10.318Z,95084.34
2023-05-09T01:40:38.586Z,95082.47
2023-05-09T01:43:07.217Z,95086.19
2023-05-09T01:45:34.290Z,95085.13
2023-05-09T01:48:02.964Z,95083.81
2023-05-09T01:50:31.529Z,95085.38
2023-05-09T01:52:59.749Z,95080.84
2023-05-09T01:55:28.058Z,95076.09
2023-05-09T01:57:56.682Z,95072.91
2023-05-09T02:00:23.979Z,95070.00
2023-05-09T02:02:51.997Z,95069.22
2023-05-09T02:05:21.732Z,95064.19
2023-05-09T02:07:48.861Z,95062.31
2023-05-09T02:10:16.189Z,95066.31
2023-05-09T02:12:42.739Z,95064.44
2023-05-09T02:15:09.821Z,95062.06
2023-05-09T02:17:40.366Z,95055.16
2023-05-09T02:20:10.148Z,95049.84
2023-05-09T02:22:39.724Z,95057.81
2023-05-09T02:25:07.466Z,95062.06
2023-05-09T02:27:34.836Z,95053.03
2023-05-09T02:30:04.214Z,95055.41
2023-05-09T02:32:32.035Z,95057.53
2023-05-09T02:34:59.663Z,95055.94
2023-05-09T02:37:26.834Z,95062.59
2023-05-09T02:39:55.520Z,95062.06
2023-05-09T02:42:25.401Z,95056.22
2023-05-09T02:44:52.171Z,95055.44
2023-05-09T02:47:18.862Z,95053.59
2023-05-09T02:49:45.400Z,95053.59
2023-05-09T02:52:12.899Z,95061.53
2023-05-09T02:54:39.445Z,95051.72
2023-05-09T02:57:08.055Z,95043.00
2023-05-09T02:59:35.016Z,95051.72
2023-05-09T03:02:02.425Z,95041.91
2023-05-09T03:04:29.908Z,95043.25
2023-05-09T03:06:56.901Z,95045.91
2023-05-09T03:09:26.556Z,95043.78
2023-05-09T03:11:53.078Z,95038.47
2023-05-09T03:14:21.581Z,95041.13
2023-05-09T03:16:48.416Z,95042.69
2023-05-09T03:19:23.741Z,95039.78
2023-05-09T03:21:50.575Z,95038.19
2023-05-09T03:24:17.696Z,95033.69
2023-05-09T03:26:44.472Z,95038.72
2023-05-09T03:29:11.501Z,95033.16
2023-05-09T03:31:40.639Z,95029.19
2023-05-09T03:34:07.404Z,95033.41
2023-05-09T03:36:34.117Z,95030.75
2023-05-09T03:39:02.526Z,95028.91
2023-05-09T03:41:29.235Z,95024.13
2023-05-09T03:43:56.883Z,95019.09
2023-05-09T03:46:23.489Z,95020.94
2023-05-09T03:48:51.676Z,95020.94
2023-05-09T03:51:18.377Z,95022.56
2023-05-09T03:53:46.126Z,95021.22
2023-05-09T03:56:14.297Z,95018.03
2023-05-09T03:58:46.505Z,95027.06
2023-05-09T04:01:14.351Z,95026.00
2023-05-09T04:03:41.351Z,95023.09
2023-05-09T04:06:10.242Z,95026.00
2023-05-09T04:08:42.045Z,95022.56
2023-05-09T04:11:08.591Z,95018.31
2023-05-09T04:13:37.404Z,95015.13
2023-05-09T04:16:12.366Z,95016.19
2023-05-09T04:18:42.162Z,95020.16
2023-05-09T04:21:10.235Z,95024.38
2023-05-09T04:23:39.113Z,95026.00
2023-05-09T04:26:09.869Z,95026.00
2023-05-09T04:28:36.791Z,95030.47
2023-05-09T04:31:03.696Z,95023.84
2023-05-09T04:33:31.502Z,95020.66
2023-05-09T04:36:01.551Z,95016.97
2023-05-09T04:38:30.482Z,95012.72
2023-05-09T04:40:58.656Z,95007.72
2023-05-09T04:43:28.403Z,95006.09
2023-05-09T04:45:55.414Z,95009.53
2023-05-09T04:48:22.957Z,95008.22
2023-05-09T04:50:50.049Z,95011.16
2023-05-09T04:53:17.114Z,95007.97
2023-05-09T04:55:46.442Z,95009.53
2023-05-09T04:58:13.282Z,95006.63
2023-05-09T05:00:40.077Z,95006.63
2023-05-09T05:03:07.678Z,95008.97
2023-05-09T05:05:37.520Z,95008.44
2023-05-09T05:08:05.140Z,95011.63
2023-05-09T05:10:36.225Z,95003.63
2023-05-09T05:13:08.967Z,95004.97
2023-05-09T05:15:39.518Z,94996.69
2023-05-09T05:18:07.581Z,95001.22
2023-05-09T05:20:35.342Z,94996.66
2023-05-09T05:23:02.066Z,94993.75
2023-05-09T05:25:28.566Z,94991.63
2023-05-09T05:27:56.580Z,94992.38
2023-05-09T05:30:24.800Z,94996.00
2023-05-09T05:32:51.847Z,95000.19
2023-05-09T05:35:23.334Z,95001.44
2023-05-09T05:37:51.080Z,94998.41
2023-05-09T05:40:17.776Z,94998.34
2023-05-09T05:42:48.089Z,94994.81
2023-05-09T05:45:15.073Z,94996.63
2023-05-09T05:47:47.994Z,94998.81
2023-05-09T05:50:15.125Z,95002.81
2023-05-09T05:52:42.457Z,95002.00
2023-05-09T05:55:13.042Z,94996.38
2023-05-09T05:57:40.346Z,94990.94
2023-05-09T06:00:12.044Z,94987.97
2023-05-09T06:02:48.277Z,94993.00
2023-05-09T06:05:29.440Z,94996.13
2023-05-09T06:07:56.424Z,94996.59
2023-05-09T06:10:22.942Z,94990.16
2023-05-09T06:12:50.449Z,94985.63
2023-05-09T06:15:17.639Z,94989.88
2023-05-09T06:17:48.267Z,94987.69
2023-05-09T06:20:14.971Z,94984.41
2023-05-09T06:22:41.680Z,94988.59
2023-05-09T06:25:10.464Z,94981.75
2023-05-09T06:27:37.458Z,94984.69
2023-05-09T06:30:14.104Z,94986.25
2023-05-09T06:32:44.640Z,94977.94
2023-05-09T06:35:13.030Z,94974.13
2023-05-09T06:37:39.746Z,94972.50
2023-05-09T06:40:07.403Z,94970.06
2023-05-09T06:42:33.954Z,94964.69
2023-05-09T06:45:01.061Z,94964.34
2023-05-09T06:47:27.730Z,94959.44
2023-05-09T06:49:54.303Z,94952.22
2023-05-09T06:52:22.925Z,94948.66
2023-05-09T06:54:57.537Z,94960.34
2023-05-09T06:57:27.183Z,94952.28
2023-05-09T07:02:35.193Z,94950.31
2023-05-09T07:05:02.890Z,94944.91
2023-05-09T07:07:32.392Z,94944.06
2023-05-09T07:10:10.663Z,94947.13
2023-05-09T07:12:50.077Z,94938.47
2023-05-09T07:20:39.538Z,94933.34
2023-05-09T07:23:07.759Z,94928.22
2023-05-09T07:25:34.496Z,94929.34
2023-05-09T07:28:01.221Z,94931.16
2023-05-09T07:30:29.854Z,94926.00
2023-05-09T07:32:56.840Z,94916.25
2023-05-09T07:35:24.593Z,94923.50
2023-05-09T07:37:51.287Z,94927.69
2023-05-09T07:40:20.100Z,94923.19
2023-05-09T07:42:49.807Z,94919.63
2023-05-09T07:45:17.183Z,94919.22
2023-05-09T07:47:44.555Z,94914.28
2023-05-09T07:50:11.601Z,94912.28
2023-05-09T07:52:38.342Z,94900.78
2023-05-09T07:55:05.798Z,94893.91
2023-05-09T07:57:34.210Z,94892.75
2023-05-09T08:00:01.761Z,94885.88
2023-05-09T08:02:28.697Z,94883.78
2023-05-09T08:04:55.840Z,94883.69
2023-05-09T08:07:22.369Z,94884.69
2023-05-09T08:09:49.021Z,94881.44
2023-05-09T08:12:15.774Z,94878.44
2023-05-09T08:14:44.697Z,94873.88
2023-05-09T08:17:11.245Z,94866.19
2023-05-09T08:19:38.022Z,94871.44
2023-05-09T08:22:05.168Z,94866.97
2023-05-09T08:24:32.881Z,94865.19
2023-05-09T08:26:59.927Z,94867.97
2023-05-09T08:29:26.709Z,94866.41
2023-05-09T08:31:54.917Z,94856.81
2023-05-09T08:34:23.152Z,94844.94
2023-05-09T08:36:49.820Z,94841.47
2023-05-09T08:39:16.668Z,94840.56
2023-05-09T08:41:43.700Z,94846.94
2023-05-09T08:44:10.946Z,94841.91
2023-05-09T08:46:47.531Z,94841.91
2023-05-09T08:49:16.210Z,94836.59
2023-05-09T08:51:43.152Z,94833.53
2023-05-09T08:54:10.704Z,94831.56
2023-05-09T08:56:37.691Z,94829.59
2023-05-09T08:59:04.500Z,94830.41
2023-05-09T09:01:33.446Z,94822.38
2023-05-09T09:04:01.008Z,94819.19
2023-05-09T09:06:30.413Z,94813.50
2023-05-09T09:08:57.817Z,94806.38
2023-05-09T09:11:25.519Z,94808.00
2023-05-09T09:13:53.197Z,94805.16
2023-05-09T09:16:21.410Z,94802.16
2023-05-09T09:18:49.980Z,94806.69
2023-05-09T09:21:19.630Z,94805.72
2023-05-09T09:23:50.420Z,94790.81
2023-05-09T09:28:58.300Z,94781.78
2023-05-09T09:31:26.847Z,94777.19
2023-05-09T09:33:59.737Z,94774.59
2023-05-09T09:39:09.533Z,94766.81
2023-05-09T09:41:36.778Z,94762.00
2023-05-09T09:44:07.457Z,94749.06
2023-05-09T09:46:43.607Z,94747.69
2023-05-09T09:49:10.431Z,94744.88
2023-05-09T09:51:37.210Z,94740.13
2023-05-09T09:54:04.933Z,94731.28
2023-05-09T09:56:43.941Z,94737.06
2023-05-09T09:59:12.072Z,94734.94
2023-05-09T10:01:59.260Z,94733.78
2023-05-09T10:04:26.896Z,94724.53
2023-05-09T10:06:54.368Z,94721.28
2023-05-09T10:09:21.379Z,94712.03
2023-05-09T10:11:51.130Z,94713.53
2023-05-09T10:14:18.732Z,94711.69
2023-05-09T10:16:46.671Z,94698.44
2023-05-09T10:19:13.792Z,94698.50
2023-05-09T10:24:33.407Z,94688.31
2023-05-09T10:27:06.352Z,94691.53
2023-05-09T10:29:34.942Z,94679.75
2023-05-09T10:32:07.067Z,94665.47
2023-05-09T10:34:35.384Z,94671.28
2023-05-09T10:37:02.333Z,94669.03
2023-05-09T10:39:29.379Z,94664.56
2023-05-09T10:41:58.273Z,94662.50
2023-05-09T10:44:26.587Z,94659.81
2023-05-09T10:46:53.661Z,94655.16
2023-05-09T10:49:21.063Z,94652.81
2023-05-09T10:51:49.902Z,94643.41
2023-05-09T10:54:30.650Z,94643.47
2023-05-09T10:56:57.964Z,94631.44
2023-05-09T10:59:40.130Z,94626.50
2023-05-09T11:02:11.788Z,94621.91
2023-05-09T11:04:38.895Z,94622.97
2023-05-09T11:07:07.623Z,94613.09
2023-05-09T11:09:35.226Z,94603.88
2023-05-09T11:12:09.309Z,94595.13
2023-05-09T11:14:45.036Z,94592.19
2023-05-09T11:17:12.881Z,94588.31
2023-05-09T11:19:59.306Z,94585.63
2023-05-09T11:22:27.845Z,94577.16
2023-05-09T11:25:00.408Z,94571.31
2023-05-09T11:27:28.530Z,94572.88
2023-05-09T11:30:05.370Z,94567.03
2023-05-09T11:32:32.996Z,94568.84
2023-05-09T11:35:06.692Z,94566.47
2023-05-09T11:37:33.845Z,94563.00
2023-05-09T11:40:04.721Z,94555.06
2023-05-09T11:42:42.104Z,94554.63
2023-05-09T11:45:11.095Z,94551.41
2023-05-09T11:47:37.924Z,94545.03
2023-05-09T11:50:05.776Z,94542.06
2023-05-09T11:52:33.603Z,94538.06
2023-05-09T11:55:00.163Z,94532.09
2023-05-09T11:57:26.755Z,94528.53
2023-05-09T11:59:54.093Z,94519.56
2023-05-09T12:02:24.910Z,94516.09
2023-05-09T12:04:59.794Z,94515.00
2023-05-09T12:07:26.570Z,94516.88
2023-05-09T12:09:53.434Z,94508.69
2023-05-09T12:15:04.836Z,94504.44
2023-05-09T12:17:48.978Z,94502.56
2023-05-09T12:20:22.978Z,94502.66
2023-05-09T12:22:53.500Z,94492.91
2023-05-09T12:25:20.608Z,94486.38
2023-05-09T12:27:47.225Z,94486.97
2023-05-09T12:30:16.659Z,94492.16
2023-05-09T12:32:44.210Z,94485.59
2023-05-09T12:35:11.293Z,94479.75
2023-05-09T12:37:55.231Z,94470.28
2023-05-09T12:40:21.945Z,94461.41
2023-05-09T12:42:48.699Z,94465.53
2023-05-09T12:45:16.845Z,94464.25
2023-05-09T12:47:45.605Z,94456.28
2023-05-09T12:50:13.586Z,94456.97
2023-05-09T12:53:01.349Z,94457.66
2023-05-09T12:55:29.626Z,94454.06
2023-05-09T12:58:00.277Z,94447.09
2023-05-09T13:00:27.650Z,94443.34
2023-05-09T13:02:54.895Z,94440.63
2023-05-09T13:05:22.781Z,94430.38
2023-05-09T13:08:07.204Z,94427.00
2023-05-09T13:10:48.568Z,94436.59
2023-05-09T13:13:30.397Z,94424.41
2023-05-09T13:24:27.812Z,94418.03
2023-05-09T13:29:39.132Z,94405.91
2023-05-09T13:32:06.162Z,94406.81
2023-05-09T13:34:48.846Z,94405.47
2023-05-09T13:37:18.442Z,94404.63
2023-05-09T13:39:55.201Z,94393.63
2023-05-09T13:42:22.045Z,94391.63
2023-05-09T13:44:48.721Z,94390.94
2023-05-09T14:00:56.988Z,94390.00
2023-05-09T14:11:40.392Z,94380.22
2023-05-09T14:23:08.584Z,94379.63
2023-05-09T15:18:23.541Z,94293.22
2023-05-09T15:23:49.472Z,94288.50
2023-05-09T15:28:58.009Z,94284.06
2023-05-09T15:39:36.168Z,94274.50
2023-05-09T15:42:09.110Z,94275.59
2023-05-09T15:44:36.342Z,94269.19
2023-05-09T16:06:40.864Z,94244.59
2023-05-09T17:39:54.508Z,94124.94
2023-05-09T17:42:21.372Z,94116.91
2023-05-09T17:47:47.340Z,94109.66
